createdAt,value
2022-12-20T00:00:51.757Z,100981.13
2022-12-20T00:03:18.432Z,100980.03
2022-12-20T00:05:45.039Z,100986.88
2022-12-20T00:08:11.903Z,100980.31
2022-12-20T00:10:39.913Z,100974.97
2022-12-20T00:13:06.902Z,100981.72
2022-12-20T00:15:33.529Z,100980.94
2022-12-20T00:18:00.476Z,100976.16
2022-12-20T00:20:27.997Z,100980.56
2022-12-20T00:22:54.700Z,100983.28
2022-12-20T00:25:21.852Z,100971.13
2022-12-20T00:27:49.008Z,100974.84
2022-12-20T00:30:15.890Z,100968.00
2022-12-20T00:32:42.413Z,100960.81
2022-12-20T00:35:09.122Z,100958.09
2022-12-20T00:37:35.638Z,100962.75
2022-12-20T00:40:02.232Z,100958.34
2022-12-20T00:42:28.753Z,100963.09
2022-12-20T00:44:55.192Z,100961.56
2022-12-20T00:47:21.843Z,100958.38
2022-12-20T00:49:48.304Z,100949.59
2022-12-20T00:52:14.746Z,100944.31
2022-12-20T00:54:41.242Z,100957.84
2022-12-20T00:57:07.673Z,100951.19
2022-12-20T00:59:34.259Z,100948.63
2022-12-20T01:02:00.855Z,100951.06
2022-12-20T01:04:27.544Z,100945.03
2022-12-20T01:06:53.983Z,100940.03
2022-12-20T01:09:20.465Z,100947.19
2022-12-20T01:11:46.901Z,100948.00
2022-12-20T01:14:15.292Z,100947.22
2022-12-20T01:16:44.898Z,100942.59
2022-12-20T01:19:15.366Z,100940.81
2022-12-20T01:21:44.713Z,100940.84
2022-12-20T01:24:12.625Z,100950.13
2022-12-20T01:26:39.288Z,100942.19
2022-12-20T01:29:05.875Z,100944.56
2022-12-20T01:31:32.753Z,100943.28
2022-12-20T01:33:59.693Z,100940.94
2022-12-20T01:36:29.402Z,100940.41
2022-12-20T01:39:01.679Z,100941.94
2022-12-20T01:41:29.054Z,100938.84
2022-12-20T01:43:58.584Z,100949.16
2022-12-20T01:46:27.836Z,100948.00
2022-12-20T01:49:00.433Z,100945.09
2022-12-20T01:51:27.737Z,100941.81
2022-12-20T01:53:58.733Z,100944.16
2022-12-20T01:56:25.269Z,100935.50
2022-12-20T01:58:52.920Z,100935.63
2022-12-20T02:01:19.488Z,100934.69
2022-12-20T02:03:46.624Z,100947.81
2022-12-20T02:06:22.097Z,100936.56
2022-12-20T02:08:49.858Z,100942.00
2022-12-20T02:11:31.518Z,100940.94
2022-12-20T02:14:19.283Z,100933.88
2022-12-20T02:16:53.824Z,100937.25
2022-12-20T02:19:58.025Z,100936.16
2022-12-20T02:22:24.474Z,100942.25
2022-12-20T02:25:17.085Z,100948.41
2022-12-20T02:27:57.244Z,100940.25
2022-12-20T02:30:28.097Z,100943.94
2022-12-20T02:33:01.067Z,100943.91
2022-12-20T02:35:31.751Z,100939.69
2022-12-20T02:38:00.897Z,100946.44
2022-12-20T02:40:39.883Z,100956.47
2022-12-20T02:43:29.163Z,100947.50
2022-12-20T02:45:57.566Z,100959.84
2022-12-20T02:48:25.938Z,100956.00
2022-12-20T02:50:54.154Z,100952.91
2022-12-20T02:53:21.488Z,100947.59
2022-12-20T02:55:54.837Z,100948.34
2022-12-20T02:58:43.104Z,100942.84
2022-12-20T03:01:17.877Z,100942.06
2022-12-20T03:03:44.699Z,100946.09
2022-12-20T03:06:11.215Z,100940.88
2022-12-20T03:08:37.684Z,100935.47
2022-12-20T03:11:04.234Z,100928.69
2022-12-20T03:13:30.715Z,100927.66
2022-12-20T03:15:57.231Z,100918.53
2022-12-20T03:18:23.690Z,100915.06
2022-12-20T03:20:50.144Z,100907.00
2022-12-20T03:23:16.622Z,100906.72
2022-12-20T03:25:43.119Z,100902.16
2022-12-20T03:28:09.576Z,100899.09
2022-12-20T03:30:36.518Z,100903.16
2022-12-20T03:33:03.012Z,100903.88
2022-12-20T03:35:29.544Z,100909.31
2022-12-20T03:37:56.458Z,100905.06
2022-12-20T03:40:23.279Z,100898.25
2022-12-20T03:42:49.804Z,100910.63
2022-12-20T03:45:16.390Z,100909.81
2022-12-20T03:47:42.968Z,100913.69
2022-12-20T03:50:09.817Z,100902.94
2022-12-20T03:52:36.316Z,100911.41
2022-12-20T03:55:03.471Z,100922.88
2022-12-20T03:57:29.948Z,100922.19
2022-12-20T03:59:56.438Z,100911.84
2022-12-20T04:02:23.115Z,100898.34
2022-12-20T04:04:49.931Z,100907.78
2022-12-20T04:07:16.463Z,100898.13
2022-12-20T04:09:42.921Z,100905.06
2022-12-20T04:12:09.448Z,100898.66
2022-12-20T04:14:37.365Z,100897.63
2022-12-20T04:17:04.333Z,100885.53
2022-12-20T04:19:30.830Z,100889.34
2022-12-20T04:22:04.641Z,100891.41
2022-12-20T04:24:32.329Z,100887.47
2022-12-20T04:26:58.803Z,100895.56
2022-12-20T04:29:25.300Z,100897.47
2022-12-20T04:31:51.836Z,100896.97
2022-12-20T04:34:18.417Z,100895.81
2022-12-20T04:36:44.899Z,100891.69
2022-12-20T04:39:11.372Z,100883.38
2022-12-20T04:41:37.882Z,100886.59
2022-12-20T04:44:04.441Z,100876.09
2022-12-20T04:46:30.958Z,100879.50
2022-12-20T04:48:59.290Z,100878.75
2022-12-20T04:51:27.208Z,100868.13
2022-12-20T04:53:54.101Z,100867.56
2022-12-20T04:56:20.524Z,100868.75
2022-12-20T04:58:48.325Z,100864.38
2022-12-20T05:01:15.229Z,100860.88
2022-12-20T05:03:42.045Z,100867.81
2022-12-20T05:06:08.935Z,100868.81
2022-12-20T05:08:35.540Z,100871.59
2022-12-20T05:11:02.301Z,100870.78
2022-12-20T05:13:28.847Z,100864.31
2022-12-20T05:15:56.310Z,100860.69
2022-12-20T05:18:23.609Z,100852.63
2022-12-20T05:21:10.075Z,100859.69
2022-12-20T05:23:55.843Z,100853.88
2022-12-20T05:26:24.658Z,100851.97
2022-12-20T05:28:52.759Z,100840.69
2022-12-20T05:31:19.296Z,100849.38
2022-12-20T05:33:45.845Z,100847.03
2022-12-20T05:36:12.333Z,100849.16
2022-12-20T05:38:38.901Z,100847.16
2022-12-20T05:41:06.726Z,100847.06
2022-12-20T05:43:33.548Z,100849.44
2022-12-20T05:46:00.399Z,100835.63
2022-12-20T05:48:27.058Z,100844.09
2022-12-20T05:50:53.530Z,100842.03
2022-12-20T05:53:20.124Z,100839.88
2022-12-20T05:55:51.698Z,100844.34
2022-12-20T05:58:18.464Z,100841.78
2022-12-20T06:00:45.488Z,100843.22
2022-12-20T06:03:12.300Z,100840.59
2022-12-20T06:05:39.711Z,100831.03
2022-12-20T06:08:07.325Z,100835.44
2022-12-20T06:10:37.620Z,100822.34
2022-12-20T06:13:04.613Z,100819.78
2022-12-20T06:15:31.411Z,100833.78
2022-12-20T06:17:58.088Z,100826.31
2022-12-20T06:20:24.823Z,100813.94
2022-12-20T06:22:52.628Z,100818.66
2022-12-20T06:25:19.297Z,100829.41
2022-12-20T06:27:45.786Z,100827.53
2022-12-20T06:30:13.155Z,100826.84
2022-12-20T06:32:39.648Z,100829.00
2022-12-20T06:35:06.694Z,100854.38
2022-12-20T06:37:33.272Z,100840.28
2022-12-20T06:40:00.296Z,100847.97
2022-12-20T06:42:26.808Z,100839.41
2022-12-20T06:44:53.261Z,100844.38
2022-12-20T06:47:19.809Z,100846.34
2022-12-20T06:49:46.246Z,100846.38
2022-12-20T06:52:12.784Z,100845.13
2022-12-20T06:54:39.236Z,100861.81
2022-12-20T06:57:06.926Z,100854.09
2022-12-20T06:59:33.568Z,100856.13
2022-12-20T07:02:00.273Z,100856.97
2022-12-20T07:04:27.042Z,100853.66
2022-12-20T07:06:53.582Z,100849.03
2022-12-20T07:09:20.037Z,100854.06
2022-12-20T07:11:46.459Z,100867.97
2022-12-20T07:14:12.981Z,100867.56
2022-12-20T07:16:42.729Z,100863.53
2022-12-20T07:19:14.251Z,100863.19
2022-12-20T07:21:40.793Z,100855.47
2022-12-20T07:24:08.092Z,100852.72
2022-12-20T07:26:34.681Z,100841.00
2022-12-20T07:29:01.890Z,100847.09
2022-12-20T07:31:28.411Z,100840.69
2022-12-20T07:33:54.914Z,100827.88
2022-12-20T07:36:21.389Z,100831.06
2022-12-20T07:38:49.081Z,100827.81
2022-12-20T07:41:18.097Z,100826.94
2022-12-20T07:43:44.708Z,100831.53
2022-12-20T07:46:13.169Z,100826.97
2022-12-20T07:48:39.821Z,100828.25
2022-12-20T07:51:08.659Z,100829.34
2022-12-20T07:53:38.292Z,100823.38
2022-12-20T07:56:05.640Z,100825.88
2022-12-20T07:58:35.063Z,100826.81
2022-12-20T08:01:01.801Z,100820.53
2022-12-20T08:03:32.058Z,100814.22
2022-12-20T08:06:00.990Z,100819.53
2022-12-20T08:08:27.606Z,100820.34
2022-12-20T08:10:54.104Z,100820.66
2022-12-20T08:13:20.598Z,100812.84
2022-12-20T08:15:47.089Z,100814.13
2022-12-20T08:18:13.580Z,100820.44
2022-12-20T08:20:40.039Z,100814.78
2022-12-20T08:23:06.977Z,100811.94
2022-12-20T08:25:41.192Z,100810.63
2022-12-20T08:28:08.122Z,100813.09
2022-12-20T08:30:34.624Z,100812.16
2022-12-20T08:33:01.157Z,100808.25
2022-12-20T08:35:27.627Z,100805.34
2022-12-20T08:37:54.133Z,100797.34
2022-12-20T08:40:20.773Z,100793.25
2022-12-20T08:42:47.375Z,100790.28
2022-12-20T08:45:13.877Z,100795.16
2022-12-20T08:47:40.569Z,100785.19
2022-12-20T08:50:07.658Z,100775.09
2022-12-20T08:52:34.176Z,100783.59
2022-12-20T08:55:01.911Z,100773.13
2022-12-20T08:57:28.799Z,100778.22
2022-12-20T08:59:55.261Z,100785.41
2022-12-20T09:02:21.996Z,100780.94
2022-12-20T09:04:48.773Z,100783.16
2022-12-20T09:07:15.212Z,100788.66
2022-12-20T09:09:41.705Z,100781.72
2022-12-20T09:12:08.153Z,100785.84
2022-12-20T09:14:34.700Z,100786.53
2022-12-20T09:17:01.173Z,100781.38
2022-12-20T09:19:29.547Z,100789.72
2022-12-20T09:21:56.209Z,100785.84
2022-12-20T09:24:22.756Z,100796.44
2022-12-20T09:26:50.314Z,100788.66
2022-12-20T09:29:25.812Z,100779.13
2022-12-20T09:31:53.671Z,100776.03
2022-12-20T09:34:20.152Z,100784.94
2022-12-20T09:36:46.622Z,100787.19
2022-12-20T09:39:13.128Z,100792.13
2022-12-20T09:41:41.418Z,100785.56
2022-12-20T09:44:17.050Z,100790.22
2022-12-20T09:46:44.459Z,100793.19
2022-12-20T09:49:16.220Z,100786.34
2022-12-20T09:51:54.747Z,100790.22
2022-12-20T09:54:27.290Z,100781.81
2022-12-20T09:57:04.500Z,100780.00
2022-12-20T09:59:39.547Z,100784.25
2022-12-20T10:02:43.578Z,100777.28
2022-12-20T10:04:58.901Z,100781.94
2022-12-20T10:07:37.872Z,100784.38
2022-12-20T10:10:21.954Z,100785.53
2022-12-20T10:13:00.874Z,100770.06
2022-12-20T10:15:35.219Z,100778.59
2022-12-20T10:18:01.704Z,100787.31
2022-12-20T10:20:39.795Z,100779.38
2022-12-20T10:23:17.782Z,100774.81
2022-12-20T10:25:46.149Z,100772.34
2022-12-20T10:28:15.475Z,100770.59
2022-12-20T10:30:42.746Z,100762.63
2022-12-20T10:33:21.737Z,100756.97
2022-12-20T10:35:50.671Z,100747.25
2022-12-20T10:38:21.008Z,100747.00
2022-12-20T10:41:21.120Z,100741.44
2022-12-20T10:43:52.848Z,100734.91
2022-12-20T10:46:19.485Z,100726.28
2022-12-20T10:48:48.479Z,100715.03
2022-12-20T10:51:25.330Z,100707.66
2022-12-20T10:53:54.909Z,100712.00
2022-12-20T10:56:32.836Z,100721.63
2022-12-20T10:59:23.688Z,100723.47
2022-12-20T11:01:50.780Z,100728.72
2022-12-20T11:04:32.259Z,100725.59
2022-12-20T11:07:01.047Z,100726.69
2022-12-20T11:09:36.065Z,100718.97
2022-12-20T11:12:05.655Z,100719.97
2022-12-20T11:14:39.145Z,100713.69
2022-12-20T11:17:35.568Z,100695.66
2022-12-20T11:20:08.195Z,100689.38
2022-12-20T11:23:05.556Z,100701.84
2022-12-20T11:25:50.804Z,100688.94
2022-12-20T11:28:36.439Z,100677.00
2022-12-20T11:31:06.021Z,100674.13
2022-12-20T11:33:47.560Z,100677.56
2022-12-20T11:36:37.188Z,100674.06
2022-12-20T11:39:36.191Z,100668.97
2022-12-20T11:42:14.704Z,100652.84
2022-12-20T11:45:03.545Z,100660.03
2022-12-20T11:47:55.916Z,100660.16
2022-12-20T11:50:31.527Z,100663.81
2022-12-20T11:53:00.678Z,100664.59
2022-12-20T11:55:41.938Z,100662.16
2022-12-20T11:58:26.321Z,100665.50
2022-12-20T12:00:58.288Z,100659.59
2022-12-20T12:03:29.135Z,100660.19
2022-12-20T12:06:29.392Z,100649.22
2022-12-20T12:09:11.940Z,100663.94
2022-12-20T12:15:17.446Z,100649.44
2022-12-20T12:18:11.823Z,100638.41
2022-12-20T12:20:56.624Z,100641.19
2022-12-20T12:23:29.840Z,100630.81
2022-12-20T12:25:58.444Z,100631.28
2022-12-20T12:28:24.975Z,100635.16
2022-12-20T12:31:04.092Z,100633.91
2022-12-20T12:33:50.826Z,100632.09
2022-12-20T12:36:45.203Z,100627.38
2022-12-20T12:39:31.882Z,100622.81
2022-12-20T12:42:35.316Z,100615.09
2022-12-20T12:45:09.977Z,100618.59
2022-12-20T12:47:40.398Z,100622.94
2022-12-20T12:50:14.949Z,100625.63
2022-12-20T12:52:46.180Z,100609.88
2022-12-20T12:55:50.600Z,100610.78
2022-12-20T12:58:24.171Z,100611.66
2022-12-20T13:00:58.256Z,100611.59
2022-12-20T13:03:48.476Z,100607.47
2022-12-20T13:06:25.250Z,100604.84
2022-12-20T13:09:00.731Z,100614.22
2022-12-20T13:11:34.007Z,100612.50
2022-12-20T13:14:24.822Z,100607.38
2022-12-20T13:17:13.106Z,100615.00
2022-12-20T13:19:52.103Z,100609.06
2022-12-20T13:22:23.860Z,100594.28
2022-12-20T13:25:04.019Z,100602.22
2022-12-20T13:27:33.189Z,100593.44
2022-12-20T13:30:11.983Z,100600.28
2022-12-20T13:32:47.887Z,100600.88
2022-12-20T13:35:26.694Z,100615.25
2022-12-20T13:38:06.317Z,100602.75
2022-12-20T13:40:35.425Z,100608.97
2022-12-20T13:43:20.303Z,100601.28
2022-12-20T13:45:51.811Z,100614.53
2022-12-20T13:48:23.134Z,100617.84
2022-12-20T13:50:52.931Z,100615.94
2022-12-20T13:53:22.228Z,100615.25
2022-12-20T13:55:49.708Z,100615.09
2022-12-20T13:58:19.056Z,100616.66
2022-12-20T14:00:47.630Z,100607.34
2022-12-20T14:03:19.946Z,100609.88
2022-12-20T14:05:46.584Z,100608.91
2022-12-20T14:08:25.210Z,100608.16
2022-12-20T14:10:52.803Z,100605.06
2022-12-20T14:13:24.477Z,100622.88
2022-12-20T14:15:51.995Z,100624.59
2022-12-20T14:18:24.766Z,100626.34
2022-12-20T14:20:58.410Z,100617.69
2022-12-20T14:23:45.856Z,100622.81
2022-12-20T14:26:17.332Z,100616.66
2022-12-20T14:28:47.217Z,100617.41
2022-12-20T14:31:33.705Z,100611.41
2022-12-20T14:34:11.801Z,100602.44
2022-12-20T14:36:40.053Z,100605.13
2022-12-20T14:39:27.622Z,100594.81
2022-12-20T14:42:09.854Z,100593.88
2022-12-20T14:44:36.420Z,100587.81
2022-12-20T14:47:17.108Z,100591.31
2022-12-20T14:49:54.094Z,100588.78
2022-12-20T14:52:25.374Z,100572.44
2022-12-20T14:55:11.068Z,100577.34
2022-12-20T14:57:39.344Z,100573.88
2022-12-20T15:00:14.025Z,100561.69
2022-12-20T15:02:55.918Z,100579.16
2022-12-20T15:05:34.954Z,100588.84
2022-12-20T15:08:19.598Z,100597.44
2022-12-20T15:10:59.969Z,100597.59
2022-12-20T15:13:36.732Z,100605.31
2022-12-20T15:16:14.591Z,100600.81
2022-12-20T15:18:41.409Z,100600.06
2022-12-20T15:21:15.236Z,100596.63
2022-12-20T15:23:48.235Z,100581.91
2022-12-20T15:26:20.853Z,100593.72
2022-12-20T15:28:47.546Z,100587.28
2022-12-20T15:31:18.921Z,100596.34
2022-12-20T15:33:46.221Z,100596.47
2022-12-20T15:36:21.603Z,100599.13
2022-12-20T15:39:11.325Z,100594.00
2022-12-20T15:41:34.910Z,100578.47
2022-12-20T15:44:05.857Z,100585.25
2022-12-20T15:46:32.742Z,100568.00
2022-12-20T15:48:59.428Z,100570.53
2022-12-20T15:51:32.574Z,100568.75
2022-12-20T15:54:00.692Z,100575.72
2022-12-20T15:56:28.059Z,100575.50
2022-12-20T15:58:54.716Z,100572.25
2022-12-20T16:01:39.805Z,100578.09
2022-12-20T16:04:08.093Z,100580.75
2022-12-20T16:06:34.632Z,100572.25
2022-12-20T16:09:01.280Z,100570.22
2022-12-20T16:11:29.640Z,100569.50
2022-12-20T16:13:57.617Z,100563.63
2022-12-20T16:16:29.479Z,100570.94
2022-12-20T16:18:56.364Z,100582.31
2022-12-20T16:21:25.447Z,100571.88
2022-12-20T16:23:52.238Z,100575.66
2022-12-20T16:26:21.397Z,100571.00
2022-12-20T16:28:49.325Z,100562.97
2022-12-20T16:31:25.667Z,100573.66
2022-12-20T16:33:52.842Z,100567.88
2022-12-20T16:36:19.411Z,100561.69
2022-12-20T16:38:46.217Z,100560.97
2022-12-20T16:41:15.411Z,100560.69
2022-12-20T16:43:42.553Z,100553.34
2022-12-20T16:46:13.898Z,100569.72
2022-12-20T16:48:41.734Z,100569.19
2022-12-20T16:51:33.537Z,100564.50
2022-12-20T16:54:21.377Z,100569.72
2022-12-20T16:56:51.948Z,100574.94
2022-12-20T16:59:21.243Z,100562.72
2022-12-20T17:01:49.356Z,100564.97
2022-12-20T17:04:17.604Z,100557.94
2022-12-20T17:06:44.887Z,100560.41
2022-12-20T17:11:58.860Z,100561.47
2022-12-20T17:14:25.323Z,100560.66
2022-12-20T17:16:51.850Z,100552.91
2022-12-20T17:19:18.330Z,100548.69
2022-12-20T17:24:31.394Z,100553.88
2022-12-20T17:26:57.941Z,100542.88
2022-12-20T17:29:26.225Z,100549.81
2022-12-20T17:31:57.047Z,100549.66
2022-12-20T17:34:28.056Z,100549.09
2022-12-20T17:36:56.625Z,100561.91
2022-12-20T17:39:24.903Z,100561.88
2022-12-20T17:41:53.128Z,100547.22
2022-12-20T17:44:25.531Z,100554.72
2022-12-20T17:46:54.605Z,100562.78
2022-12-20T17:49:23.025Z,100554.13
2022-12-20T17:51:51.588Z,100557.78
2022-12-20T17:54:20.418Z,100547.88
2022-12-20T17:56:47.801Z,100547.09
2022-12-20T17:59:15.158Z,100552.63
2022-12-20T18:01:43.195Z,100539.50
2022-12-20T18:04:12.499Z,100545.56
2022-12-20T18:06:40.416Z,100547.84
2022-12-20T18:09:12.183Z,100552.53
2022-12-20T18:11:38.798Z,100547.31
2022-12-20T18:14:05.280Z,100543.91
2022-12-20T18:16:35.042Z,100546.34
2022-12-20T18:19:02.332Z,100551.69
2022-12-20T18:21:29.151Z,100556.06
2022-12-20T18:23:56.134Z,100552.50
2022-12-20T18:26:30.644Z,100555.22
2022-12-20T18:29:01.261Z,100572.25
2022-12-20T18:31:29.791Z,100564.63
2022-12-20T18:33:58.430Z,100567.19
2022-12-20T18:36:27.821Z,100573.88
2022-12-20T18:38:54.414Z,100570.75
2022-12-20T18:41:26.381Z,100556.84
2022-12-20T18:43:53.922Z,100562.16
2022-12-20T18:46:22.356Z,100566.53
2022-12-20T18:48:53.792Z,100570.63
2022-12-20T18:51:22.665Z,100577.03
2022-12-20T18:53:50.442Z,100569.09
2022-12-20T18:56:19.902Z,100577.94
2022-12-20T18:58:47.468Z,100567.28
2022-12-20T19:01:26.030Z,100569.19
2022-12-20T19:03:53.323Z,100569.00
2022-12-20T19:06:20.484Z,100577.50
2022-12-20T19:08:47.481Z,100572.41
2022-12-20T19:11:17.014Z,100571.75
2022-12-20T19:13:43.835Z,100564.91
2022-12-20T19:16:13.088Z,100558.56
2022-12-20T19:18:40.523Z,100561.34
2022-12-20T19:21:10.838Z,100566.28
2022-12-20T19:23:38.540Z,100562.75
2022-12-20T19:26:07.487Z,100565.56
2022-12-20T19:28:34.575Z,100558.56
2022-12-20T19:31:21.710Z,100559.78
2022-12-20T19:33:49.870Z,100567.94
2022-12-20T19:36:19.614Z,100569.13
2022-12-20T19:38:48.507Z,100560.56
2022-12-20T19:41:16.091Z,100565.78
2022-12-20T19:43:43.556Z,100567.34
2022-12-20T19:46:13.984Z,100552.75
2022-12-20T19:48:42.147Z,100556.28
2022-12-20T19:51:11.781Z,100558.75
2022-12-20T19:53:39.752Z,100557.97
2022-12-20T19:56:08.727Z,100558.88
2022-12-20T19:58:36.056Z,100561.28
2022-12-20T20:01:05.054Z,100552.97
2022-12-20T20:03:32.608Z,100557.91
2022-12-20T20:05:59.307Z,100563.16
2022-12-20T20:08:25.887Z,100567.53
2022-12-20T20:10:54.153Z,100564.91
2022-12-20T20:13:20.759Z,100580.22
2022-12-20T20:15:51.623Z,100573.59
2022-12-20T20:18:18.249Z,100564.69
2022-12-20T20:20:44.820Z,100564.09
2022-12-20T20:23:11.336Z,100558.91
2022-12-20T20:25:37.996Z,100566.31
2022-12-20T20:28:04.893Z,100568.41
2022-12-20T20:30:31.368Z,100569.25
2022-12-20T20:32:57.905Z,100574.63
2022-12-20T20:35:24.390Z,100574.34
2022-12-20T20:37:51.844Z,100583.03
2022-12-20T20:40:18.302Z,100577.38
2022-12-20T20:42:44.750Z,100578.00
2022-12-20T20:45:11.470Z,100579.34
2022-12-20T20:47:37.979Z,100577.25
2022-12-20T20:50:05.105Z,100581.81
2022-12-20T20:52:31.532Z,100572.78
2022-12-20T20:54:58.771Z,100576.53
2022-12-20T20:57:25.354Z,100572.91
2022-12-20T20:59:51.967Z,100575.47
2022-12-20T21:02:20.951Z,100566.75
2022-12-20T21:05:14.415Z,100571.91
2022-12-20T21:07:34.149Z,100570.38
2022-12-20T21:10:00.621Z,100569.59
2022-12-20T21:12:27.124Z,100567.81
2022-12-20T21:15:21.322Z,100570.56
2022-12-20T21:17:40.370Z,100571.16
2022-12-20T21:20:07.517Z,100566.13
2022-12-20T21:22:34.007Z,100575.53
2022-12-20T21:25:00.543Z,100573.66
2022-12-20T21:27:26.982Z,100567.00
2022-12-20T21:29:53.460Z,100572.81
2022-12-20T21:32:19.926Z,100565.19
2022-12-20T21:34:46.369Z,100575.66
2022-12-20T21:37:12.960Z,100580.03
2022-12-20T21:39:39.422Z,100573.94
2022-12-20T21:42:05.911Z,100568.72
2022-12-20T21:44:32.399Z,100572.97
2022-12-20T21:46:58.976Z,100576.56
2022-12-20T21:49:25.482Z,100571.47
2022-12-20T21:51:56.419Z,100578.19
2022-12-20T21:54:23.673Z,100579.97
2022-12-20T21:56:51.287Z,100573.16
2022-12-20T21:59:18.501Z,100570.53
2022-12-20T22:01:48.133Z,100581.78
2022-12-20T22:04:15.593Z,100584.44
2022-12-20T22:06:43.203Z,100587.06
2022-12-20T22:09:10.256Z,100581.81
2022-12-20T22:11:37.131Z,100574.88
2022-12-20T22:14:03.742Z,100576.63
2022-12-20T22:16:32.287Z,100582.75
2022-12-20T22:18:59.590Z,100574.75
2022-12-20T22:21:28.139Z,100583.34
2022-12-20T22:23:56.256Z,100585.88
2022-12-20T22:26:25.160Z,100589.44
2022-12-20T22:28:54.521Z,100596.28
2022-12-20T22:31:23.376Z,100586.66
2022-12-20T22:33:54.088Z,100573.78
2022-12-20T22:36:20.864Z,100575.66
2022-12-20T22:38:50.187Z,100581.94
2022-12-20T22:41:20.045Z,100591.47
2022-12-20T22:43:47.346Z,100597.59
2022-12-20T22:46:15.500Z,100591.38
2022-12-20T22:48:43.544Z,100579.16
2022-12-20T22:51:16.071Z,100581.03
2022-12-20T22:53:43.304Z,100575.69
2022-12-20T22:56:13.632Z,100593.97
2022-12-20T22:58:41.351Z,100587.00
2022-12-20T23:01:10.638Z,100590.38
2022-12-20T23:03:37.394Z,100586.22
2022-12-20T23:06:06.035Z,100578.44
2022-12-20T23:08:35.295Z,100581.75
2022-12-20T23:11:20.613Z,100577.53
2022-12-20T23:14:05.890Z,100569.69
2022-12-20T23:16:32.578Z,100566.28
2022-12-20T23:19:01.858Z,100576.63
2022-12-20T23:21:48.255Z,100574.91
2022-12-20T23:24:15.289Z,100570.59
2022-12-20T23:26:42.690Z,100578.38
2022-12-20T23:29:10.103Z,100580.03
2022-12-20T23:31:36.707Z,100574.84
2022-12-20T23:34:03.514Z,100574.88
2022-12-20T23:36:30.463Z,100575.78
2022-12-20T23:38:56.943Z,100583.59
2022-12-20T23:41:23.716Z,100588.63
2022-12-20T23:43:50.284Z,100583.53
2022-12-20T23:46:18.548Z,100584.44
2022-12-20T23:48:45.183Z,100596.59
2022-12-20T23:51:11.711Z,100596.69
2022-12-20T23:53:38.407Z,100589.78
2022-12-20T23:56:13.151Z,100594.03
2022-12-20T23:58:39.872Z,100583.59
